Time;durP1;ratioP1;P1;durP2;ratioP2;P2;SDS_P1;SDS_P2;PMS_P1;PMS_P2;Temp;Humidity;BMP_temperature;BMP_pressure;BME280_temperature;BME280_humidity;BME280_pressure;Samples;Min_cycle;Max_cycle;Signal;HPM_P1;HPM_P2
2023/07/09 00:00:50;;;;;;;5.35;4.63;;;20.40;99.90;;;;;;5039373;28;20411;-81
2023/07/09 00:03:18;;;;;;;4.60;4.20;;;20.40;99.90;;;;;;5032491;28;20793;-81
2023/07/09 00:05:46;;;;;;;4.93;4.45;;;20.30;99.90;;;;;;5017398;28;20389;-80
2023/07/09 00:08:27;;;;;;;5.15;4.20;;;20.20;99.90;;;;;;5017337;28;20383;-80
2023/07/09 00:10:56;;;;;;;5.93;4.03;;;20.20;99.90;;;;;;5034534;28;20422;-80
2023/07/09 00:13:23;;;;;;;5.50;4.37;;;20.20;99.90;;;;;;5035179;28;20440;-80
2023/07/09 00:15:50;;;;;;;6.00;4.13;;;20.20;99.90;;;;;;5017743;28;20406;-80
2023/07/09 00:18:16;;;;;;;4.63;4.22;;;20.20;99.90;;;;;;5034953;28;20395;-80
2023/07/09 00:20:43;;;;;;;4.38;3.97;;;20.10;99.90;;;;;;5035153;28;20410;-80
2023/07/09 00:23:09;;;;;;;5.20;4.38;;;20.10;99.90;;;;;;5022431;28;20403;-80
2023/07/09 00:25:35;;;;;;;4.60;4.20;;;20.00;99.90;;;;;;5020519;28;20467;-80
2023/07/09 00:28:02;;;;;;;6.50;4.40;;;20.10;99.90;;;;;;5026815;28;20413;-80
2023/07/09 00:30:27;;;;;;;5.03;4.63;;;20.10;99.90;;;;;;5057926;28;20449;-80
2023/07/09 00:32:54;;;;;;;5.67;4.43;;;20.00;99.90;;;;;;5057808;28;20936;-80
2023/07/09 00:35:22;;;;;;;4.90;4.50;;;20.10;99.90;;;;;;5039212;28;20390;-80
2023/07/09 00:37:47;;;;;;;5.50;4.05;;;20.10;99.90;;;;;;5045571;28;20482;-80
2023/07/09 00:40:20;;;;;;;5.30;4.20;;;20.00;99.90;;;;;;5028500;28;20485;-80
2023/07/09 00:42:48;;;;;;;6.60;4.20;;;19.90;99.90;;;;;;5037936;28;20399;-80
2023/07/09 00:45:23;;;;;;;4.70;3.92;;;20.10;99.90;;;;;;5037307;28;20383;-80
2023/07/09 00:48:06;;;;;;;5.07;4.57;;;20.10;99.90;;;;;;5019219;28;20438;-80
2023/07/09 00:50:53;;;;;;;5.30;4.17;;;20.10;99.90;;;;;;5022330;28;20399;-80
2023/07/09 00:53:20;;;;;;;4.30;3.90;;;20.00;99.90;;;;;;5036231;28;20431;-80
2023/07/09 00:55:56;;;;;;;5.20;4.70;;;19.90;99.90;;;;;;5032200;28;20400;-80
2023/07/09 00:58:26;;;;;;;6.00;4.30;;;19.90;99.90;;;;;;5027465;28;20903;-80
2023/07/09 01:00:56;;;;;;;5.05;4.20;;;20.00;99.90;;;;;;5038798;28;20403;-80
2023/07/09 01:03:42;;;;;;;6.70;4.10;;;19.90;99.90;;;;;;5039485;28;20908;-80
2023/07/09 01:06:08;;;;;;;4.82;4.03;;;19.80;99.90;;;;;;5038671;28;20381;-80
2023/07/09 01:08:37;;;;;;;4.07;3.67;;;19.90;99.90;;;;;;5040180;28;20445;-80
2023/07/09 01:11:02;;;;;;;5.05;4.03;;;19.80;99.90;;;;;;5023512;28;20402;-80
2023/07/09 01:13:32;;;;;;;8.38;4.60;;;19.60;99.90;;;;;;5020112;28;20791;-80
2023/07/09 01:15:58;;;;;;;4.60;4.20;;;19.70;99.90;;;;;;5020156;28;20405;-80
2023/07/09 01:18:24;;;;;;;4.20;3.70;;;19.70;99.90;;;;;;5020124;28;20391;-80
2023/07/09 01:20:52;;;;;;;4.43;3.80;;;19.60;99.90;;;;;;5036605;28;20426;-80
2023/07/09 01:23:18;;;;;;;4.70;4.00;;;19.60;99.90;;;;;;5019495;28;20442;-80
2023/07/09 01:25:46;;;;;;;4.97;4.10;;;19.60;99.90;;;;;;5036276;28;20383;-80
2023/07/09 01:28:13;;;;;;;4.95;4.07;;;19.60;99.90;;;;;;5037063;28;20400;-80
2023/07/09 01:30:40;;;;;;;4.70;3.90;;;19.60;99.90;;;;;;5020886;28;20966;-80
2023/07/09 01:33:06;;;;;;;5.65;4.00;;;19.60;99.90;;;;;;5040697;28;20399;-80
2023/07/09 01:35:35;;;;;;;4.40;4.00;;;19.60;99.90;;;;;;5046319;28;20411;-80
2023/07/09 01:38:01;;;;;;;4.70;3.85;;;19.50;99.90;;;;;;5050423;28;20865;-80
2023/07/09 01:40:29;;;;;;;7.20;4.50;;;19.50;99.90;;;;;;5037853;28;20438;-80
2023/07/09 01:42:57;;;;;;;4.83;4.33;;;19.40;99.90;;;;;;5022254;28;20429;-80
2023/07/09 01:45:22;;;;;;;4.63;4.20;;;19.40;99.90;;;;;;5037130;28;20900;-80
2023/07/09 01:47:48;;;;;;;5.50;3.60;;;19.40;99.90;;;;;;5037106;28;20379;-80
2023/07/09 01:50:16;;;;;;;4.10;3.70;;;19.40;99.90;;;;;;5036106;28;20391;-80
2023/07/09 01:52:43;;;;;;;4.93;4.00;;;19.40;99.90;;;;;;5019023;28;20391;-80
2023/07/09 01:55:11;;;;;;;4.70;4.15;;;19.40;99.90;;;;;;5018711;28;20403;-80
2023/07/09 01:57:37;;;;;;;4.95;4.45;;;19.30;99.90;;;;;;5032467;28;20390;-80
2023/07/09 02:00:15;;;;;;;5.60;4.70;;;19.40;99.90;;;;;;5038414;28;20405;-80
2023/07/09 02:02:48;;;;;;;4.70;4.13;;;19.50;99.90;;;;;;5055493;28;20377;-80
2023/07/09 02:05:19;;;;;;;6.03;3.92;;;19.40;99.90;;;;;;5039625;28;20386;-80
2023/07/09 02:07:44;;;;;;;4.60;4.07;;;19.40;99.90;;;;;;5049531;28;20989;-80
2023/07/09 02:10:11;;;;;;;4.33;3.93;;;19.30;99.90;;;;;;5048216;28;20403;-80
2023/07/09 02:12:36;;;;;;;5.05;4.18;;;19.30;99.90;;;;;;5039889;28;20393;-80
2023/07/09 02:15:02;;;;;;;6.07;4.00;;;19.20;99.90;;;;;;5041405;28;20773;-80
2023/07/09 02:17:28;;;;;;;5.10;4.10;;;19.20;99.90;;;;;;5019615;28;20841;-80
2023/07/09 02:19:53;;;;;;;5.28;4.30;;;19.30;99.90;;;;;;5019120;28;20430;-80
2023/07/09 02:22:19;;;;;;;6.53;4.43;;;19.30;99.90;;;;;;5020522;28;20755;-80
2023/07/09 02:24:45;;;;;;;4.85;4.20;;;19.30;99.90;;;;;;5040954;28;20393;-80
2023/07/09 02:27:12;;;;;;;5.00;3.80;;;19.40;99.90;;;;;;5035108;28;20394;-80
2023/07/09 02:29:38;;;;;;;4.93;4.00;;;19.40;99.90;;;;;;5036308;28;20387;-80
2023/07/09 02:32:04;;;;;;;4.60;4.20;;;19.40;99.90;;;;;;5037107;28;20395;-81
2023/07/09 02:34:30;;;;;;;5.43;4.30;;;19.30;99.90;;;;;;5036647;28;20383;-81
2023/07/09 02:36:58;;;;;;;4.55;3.88;;;19.30;99.90;;;;;;5032920;28;20402;-81
2023/07/09 02:39:24;;;;;;;5.40;3.85;;;19.30;99.90;;;;;;5031998;28;20407;-81
2023/07/09 02:41:50;;;;;;;6.18;4.80;;;19.30;99.90;;;;;;5038402;28;20394;-81
2023/07/09 02:44:17;;;;;;;4.30;3.90;;;19.30;99.90;;;;;;5020009;28;20394;-81
2023/07/09 02:46:43;;;;;;;5.53;3.90;;;19.20;99.90;;;;;;5036960;28;20457;-81
2023/07/09 02:49:11;;;;;;;5.55;4.32;;;19.20;99.90;;;;;;5036931;28;20867;-80
2023/07/09 02:51:37;;;;;;;5.38;3.97;;;19.10;99.90;;;;;;5036465;28;20803;-80
2023/07/09 02:54:03;;;;;;;5.72;4.50;;;19.00;99.90;;;;;;5018976;28;20399;-80
2023/07/09 02:56:30;;;;;;;4.72;4.00;;;19.00;99.90;;;;;;5036523;28;20419;-80
2023/07/09 02:58:55;;;;;;;4.22;3.83;;;19.00;99.90;;;;;;5036060;28;20394;-80
2023/07/09 03:01:24;;;;;;;5.57;4.47;;;19.00;99.90;;;;;;5018465;28;20390;-80
2023/07/09 03:03:56;;;;;;;6.00;4.28;;;19.00;99.90;;;;;;5028177;28;20470;-80
2023/07/09 03:06:23;;;;;;;4.45;4.05;;;18.90;99.90;;;;;;5035900;28;20439;-80
2023/07/09 03:08:49;;;;;;;4.32;3.92;;;18.90;99.90;;;;;;5017885;28;20375;-80
2023/07/09 03:11:16;;;;;;;4.07;3.67;;;18.80;99.90;;;;;;5035816;28;20395;-80
2023/07/09 03:13:43;;;;;;;5.60;4.20;;;18.80;99.90;;;;;;5035315;28;20423;-80
2023/07/09 03:16:09;;;;;;;4.20;3.80;;;18.80;99.90;;;;;;5035219;28;20473;-80
2023/07/09 03:18:34;;;;;;;5.90;4.20;;;18.80;99.90;;;;;;5036171;28;20375;-80
2023/07/09 03:21:00;;;;;;;5.10;3.73;;;18.70;99.90;;;;;;5017460;28;20409;-80
2023/07/09 03:23:26;;;;;;;4.55;4.15;;;18.80;99.90;;;;;;5048854;28;20890;-80
2023/07/09 03:25:51;;;;;;;4.60;3.83;;;18.80;99.90;;;;;;5037049;28;20440;-80
2023/07/09 03:28:17;;;;;;;6.43;4.37;;;18.70;99.90;;;;;;5046220;28;20387;-80
2023/07/09 03:30:44;;;;;;;4.10;3.70;;;18.70;99.90;;;;;;5035422;28;20473;-80
2023/07/09 03:33:10;;;;;;;5.85;4.00;;;18.70;99.90;;;;;;5045664;28;20389;-79
2023/07/09 03:35:38;;;;;;;4.90;3.80;;;18.80;99.90;;;;;;5055743;28;20381;-79
2023/07/09 03:38:04;;;;;;;5.32;4.43;;;18.80;99.90;;;;;;5018476;28;20398;-79
2023/07/09 03:40:29;;;;;;;5.93;4.18;;;18.60;99.90;;;;;;5017823;28;20407;-79
2023/07/09 03:42:55;;;;;;;5.82;4.80;;;18.80;99.90;;;;;;5037535;28;20749;-79
2023/07/09 03:45:21;;;;;;;4.20;3.80;;;18.80;99.90;;;;;;5036680;28;20375;-80
2023/07/09 03:47:46;;;;;;;5.00;4.07;;;18.70;99.90;;;;;;5034472;28;20399;-79
2023/07/09 03:50:12;;;;;;;4.50;3.90;;;18.70;99.90;;;;;;5049200;28;20474;-80
2023/07/09 03:52:37;;;;;;;4.50;4.03;;;18.70;99.90;;;;;;5018646;28;20399;-80
2023/07/09 03:55:04;;;;;;;4.53;4.10;;;18.70;99.90;;;;;;5036936;28;20895;-80
2023/07/09 03:57:33;;;;;;;6.00;4.30;;;18.60;99.90;;;;;;5021297;28;20425;-79
2023/07/09 03:59:59;;;;;;;5.50;4.10;;;18.60;99.90;;;;;;5043365;28;20413;-79
2023/07/09 04:02:25;;;;;;;4.40;4.00;;;18.70;99.90;;;;;;5038499;28;20395;-82
2023/07/09 04:04:50;;;;;;;6.73;4.23;;;18.60;99.90;;;;;;5022981;28;20437;-81
2023/07/09 04:07:16;;;;;;;4.50;4.10;;;18.70;99.90;;;;;;5025366;28;20529;-81
2023/07/09 04:09:42;;;;;;;4.53;4.05;;;18.60;99.90;;;;;;5040710;28;20399;-81
2023/07/09 04:12:09;;;;;;;8.20;4.28;;;18.60;99.90;;;;;;5040709;28;20386;-79
2023/07/09 04:14:35;;;;;;;4.90;4.20;;;18.70;99.90;;;;;;5020594;28;20463;-81
2023/07/09 04:17:00;;;;;;;5.87;4.70;;;18.70;99.90;;;;;;5051058;28;21052;-80
2023/07/09 04:19:26;;;;;;;5.10;4.40;;;18.70;99.90;;;;;;5024934;28;20429;-80
2023/07/09 04:21:52;;;;;;;4.67;3.90;;;18.80;99.90;;;;;;5024956;28;20824;-79
2023/07/09 04:24:19;;;;;;;4.53;4.05;;;18.70;99.90;;;;;;5038884;28;20401;-80
2023/07/09 04:26:45;;;;;;;5.00;4.50;;;18.60;99.90;;;;;;5021287;28;20375;-80
2023/07/09 04:29:11;;;;;;;5.10;4.18;;;18.70;99.90;;;;;;5022512;28;20444;-79
2023/07/09 04:31:38;;;;;;;6.63;4.40;;;18.70;99.90;;;;;;5032547;28;20432;-80
2023/07/09 04:34:04;;;;;;;5.40;4.10;;;18.60;99.90;;;;;;5054317;28;20414;-80
2023/07/09 04:36:29;;;;;;;5.40;4.22;;;18.70;99.90;;;;;;5024053;28;20472;-80
2023/07/09 04:38:55;;;;;;;5.10;4.40;;;18.60;99.90;;;;;;5040786;28;20414;-80
2023/07/09 04:41:21;;;;;;;4.50;4.10;;;18.70;99.90;;;;;;5059601;28;20435;-80
2023/07/09 04:43:46;;;;;;;4.80;4.30;;;18.80;99.90;;;;;;5059801;28;20385;-80
2023/07/09 04:46:12;;;;;;;4.72;4.00;;;18.90;99.90;;;;;;5042914;28;20394;-81
2023/07/09 04:48:38;;;;;;;5.20;4.20;;;18.90;99.90;;;;;;5060434;28;20382;-80
2023/07/09 04:51:04;;;;;;;5.03;4.22;;;18.90;99.90;;;;;;5045369;28;20381;-80
2023/07/09 04:53:30;;;;;;;4.68;4.22;;;18.80;99.90;;;;;;5063310;28;20386;-80
2023/07/09 04:55:56;;;;;;;5.95;4.18;;;18.80;99.90;;;;;;5057335;28;20772;-80
2023/07/09 04:58:21;;;;;;;5.27;4.10;;;18.70;99.90;;;;;;5028102;28;20434;-80
2023/07/09 05:00:47;;;;;;;3.70;3.40;;;18.80;99.90;;;;;;5060504;28;20763;-80
2023/07/09 05:03:13;;;;;;;6.00;3.83;;;18.80;99.90;;;;;;5043808;28;20467;-80
2023/07/09 05:05:46;;;;;;;4.38;3.67;;;18.90;99.90;;;;;;5041212;28;20393;-82
2023/07/09 05:08:13;;;;;;;4.22;3.80;;;18.90;99.90;;;;;;5059173;28;20390;-81
2023/07/09 05:10:42;;;;;;;4.38;3.97;;;19.00;99.90;;;;;;5043542;28;20390;-81
2023/07/09 05:13:08;;;;;;;5.55;3.95;;;19.10;99.90;;;;;;5042516;28;20916;-81
2023/07/09 05:15:34;;;;;;;3.80;3.50;;;19.10;99.90;;;;;;5062935;28;20408;-81
2023/07/09 05:17:59;;;;;;;5.00;4.07;;;19.10;99.90;;;;;;5047238;28;20453;-80
2023/07/09 05:20:25;;;;;;;5.20;3.80;;;19.20;99.90;;;;;;5047790;28;20408;-80
2023/07/09 05:22:52;;;;;;;5.13;4.03;;;19.30;99.90;;;;;;5065803;28;20416;-80
2023/07/09 05:25:20;;;;;;;5.80;4.60;;;19.30;99.90;;;;;;5050731;28;20449;-80
2023/07/09 05:27:46;;;;;;;6.55;4.20;;;19.40;99.90;;;;;;5032315;28;20404;-80
2023/07/09 05:30:12;;;;;;;4.47;4.03;;;19.40;99.90;;;;;;5042095;28;20476;-79
2023/07/09 05:32:38;;;;;;;5.47;3.70;;;19.50;99.90;;;;;;5057113;28;20390;-80
2023/07/09 05:35:04;;;;;;;5.55;4.20;;;19.80;99.90;;;;;;5058769;28;20890;-79
2023/07/09 05:37:30;;;;;;;4.97;4.40;;;19.80;99.90;;;;;;5041289;28;20755;-79
2023/07/09 05:39:56;;;;;;;4.40;3.80;;;19.90;99.90;;;;;;5063370;28;20431;-80
2023/07/09 05:42:22;;;;;;;5.45;4.50;;;20.00;99.90;;;;;;5045330;28;20406;-81
2023/07/09 05:44:47;;;;;;;4.88;3.65;;;20.00;99.90;;;;;;5037982;28;20439;-80
2023/07/09 05:47:13;;;;;;;7.90;4.37;;;20.00;99.90;;;;;;5057905;28;20398;-80
2023/07/09 05:49:39;;;;;;;4.03;3.63;;;20.20;99.90;;;;;;5055377;28;20397;-80
2023/07/09 05:52:05;;;;;;;4.32;3.90;;;20.30;99.90;;;;;;5058828;28;20419;-82
2023/07/09 05:54:31;;;;;;;4.07;3.70;;;20.40;99.90;;;;;;5045506;28;20387;-82
2023/07/09 05:56:57;;;;;;;4.63;3.95;;;20.40;99.90;;;;;;5023578;28;20391;-81
2023/07/09 05:59:22;;;;;;;5.30;4.05;;;20.50;99.90;;;;;;5036925;28;20852;-82
2023/07/09 06:01:51;;;;;;;5.33;4.40;;;20.70;99.90;;;;;;5050416;28;20396;-81
2023/07/09 06:04:16;;;;;;;4.93;3.50;;;20.90;99.90;;;;;;5061235;28;20457;-82
2023/07/09 06:06:44;;;;;;;4.73;3.97;;;20.90;99.90;;;;;;5052617;28;20416;-82
2023/07/09 06:09:09;;;;;;;6.30;3.75;;;21.00;99.90;;;;;;5027264;28;20761;-82
2023/07/09 06:11:35;;;;;;;5.03;3.70;;;21.10;99.90;;;;;;5030845;28;20395;-81
2023/07/09 06:14:01;;;;;;;6.25;3.95;;;21.30;99.90;;;;;;5049463;28;20426;-82
2023/07/09 06:16:27;;;;;;;4.60;4.10;;;21.40;99.90;;;;;;5038099;28;20391;-81
2023/07/09 06:18:52;;;;;;;5.65;4.13;;;21.40;99.90;;;;;;5029174;28;20455;-81
2023/07/09 06:21:18;;;;;;;4.63;4.10;;;21.40;99.90;;;;;;5058972;28;20405;-81
2023/07/09 06:23:45;;;;;;;5.13;4.30;;;21.50;99.90;;;;;;5040681;28;20381;-81
2023/07/09 06:26:11;;;;;;;5.25;3.60;;;21.70;99.90;;;;;;5053871;28;20373;-82
2023/07/09 06:28:37;;;;;;;4.10;3.70;;;21.60;99.90;;;;;;5041490;28;20406;-82
2023/07/09 06:31:02;;;;;;;5.80;4.50;;;21.70;99.90;;;;;;5015237;28;20466;-82
2023/07/09 06:33:28;;;;;;;5.13;3.40;;;21.70;99.90;;;;;;5033582;28;20395;-82
2023/07/09 06:35:58;;;;;;;5.93;4.18;;;21.80;99.90;;;;;;5039195;28;20766;-82
2023/07/09 06:38:27;;;;;;;5.30;3.97;;;22.00;99.90;;;;;;5037031;28;20399;-82
2023/07/09 06:40:53;;;;;;;4.38;3.97;;;22.20;99.90;;;;;;5050097;28;20772;-82
2023/07/09 06:43:19;;;;;;;5.35;3.63;;;22.30;99.90;;;;;;5033702;28;20383;-82
2023/07/09 06:45:57;;;;;;;5.22;3.55;;;22.30;99.90;;;;;;5034150;28;20390;-82
2023/07/09 06:48:24;;;;;;;3.70;3.40;;;22.40;99.90;;;;;;5044089;28;20383;-82
2023/07/09 06:50:50;;;;;;;11.48;4.40;;;22.50;99.90;;;;;;5023581;28;20406;-82
2023/07/09 06:53:15;;;;;;;4.72;3.90;;;22.70;99.90;;;;;;5023642;28;20399;-81
2023/07/09 06:55:41;;;;;;;4.87;4.37;;;22.80;99.90;;;;;;5038490;28;20485;-82
2023/07/09 06:58:07;;;;;;;4.80;3.97;;;22.90;99.90;;;;;;5033342;28;20395;-82
2023/07/09 07:00:37;;;;;;;5.60;3.90;;;23.20;99.90;;;;;;5024873;28;20398;-82
2023/07/09 07:03:03;;;;;;;4.40;4.00;;;23.20;99.90;;;;;;5029155;28;20387;-84
2023/07/09 07:05:29;;;;;;;5.80;4.00;;;23.30;99.90;;;;;;5041782;28;20449;-83
2023/07/09 07:07:55;;;;;;;4.05;3.75;;;23.40;99.90;;;;;;5048955;28;20388;-85
2023/07/09 07:10:20;;;;;;;4.90;3.70;;;23.50;99.90;;;;;;5028389;28;20391;-84
2023/07/09 07:12:48;;;;;;;4.43;4.03;;;23.60;99.90;;;;;;5033959;28;20392;-84
2023/07/09 07:15:16;;;;;;;4.57;3.67;;;23.70;99.90;;;;;;5030034;28;20406;-84
2023/07/09 07:17:42;;;;;;;4.63;3.80;;;23.80;99.90;;;;;;5015492;28;20757;-84
2023/07/09 07:20:09;;;;;;;4.07;3.60;;;23.90;99.90;;;;;;5034614;28;20430;-84
2023/07/09 07:22:36;;;;;;;4.20;3.60;;;24.10;99.90;;;;;;5034155;28;20486;-84
2023/07/09 07:25:02;;;;;;;4.97;3.70;;;24.20;99.90;;;;;;5015407;28;20390;-83
2023/07/09 07:27:28;;;;;;;7.60;3.85;;;24.30;99.90;;;;;;5015191;28;20414;-84
2023/07/09 07:29:54;;;;;;;4.40;4.00;;;24.50;99.90;;;;;;5036139;28;20795;-84
2023/07/09 07:32:20;;;;;;;5.07;4.20;;;24.60;99.90;;;;;;5042286;28;20397;-84
2023/07/09 07:34:47;;;;;;;5.45;3.60;;;24.70;99.90;;;;;;5040287;28;20396;-84
2023/07/09 07:37:13;;;;;;;6.00;3.78;;;24.80;99.90;;;;;;5046268;28;21033;-84
2023/07/09 07:39:38;;;;;;;6.00;3.90;;;24.80;99.90;;;;;;5038149;28;20410;-84
2023/07/09 07:42:04;;;;;;;4.47;3.40;;;25.00;99.90;;;;;;5036414;28;20861;-85
2023/07/09 07:44:29;;;;;;;4.28;3.88;;;25.10;99.90;;;;;;5029075;28;20446;-85
2023/07/09 07:46:55;;;;;;;4.00;3.50;;;25.50;99.90;;;;;;5056807;28;20958;-84
2023/07/09 07:49:20;;;;;;;4.97;4.25;;;25.80;99.90;;;;;;5037936;28;20428;-84
2023/07/09 07:51:47;;;;;;;4.60;3.93;;;26.00;99.90;;;;;;5039834;28;20389;-84
2023/07/09 07:54:12;;;;;;;5.45;4.63;;;26.20;99.90;;;;;;5030130;28;20789;-82
2023/07/09 07:56:38;;;;;;;4.47;4.07;;;26.30;99.90;;;;;;5020700;28;20399;-82
2023/07/09 07:59:03;;;;;;;5.25;4.22;;;26.40;99.90;;;;;;5046859;28;20403;-82
2023/07/09 08:01:29;;;;;;;5.90;3.83;;;26.40;99.90;;;;;;5034806;28;20387;-82
2023/07/09 08:03:55;;;;;;;4.90;4.20;;;26.30;99.90;;;;;;5048053;28;20414;-85
2023/07/09 08:06:21;;;;;;;3.95;3.55;;;26.40;99.90;;;;;;5034232;28;20387;-86
2023/07/09 08:08:47;;;;;;;5.63;4.40;;;26.60;99.90;;;;;;5044741;28;20412;-86
2023/07/09 08:11:14;;;;;;;6.10;4.47;;;26.70;99.90;;;;;;5029921;28;20845;-86
2023/07/09 08:13:40;;;;;;;4.38;3.97;;;26.90;99.90;;;;;;5022320;28;20889;-86
2023/07/09 08:16:06;;;;;;;4.57;4.20;;;26.60;99.90;;;;;;5025075;28;20459;-85
2023/07/09 08:18:32;;;;;;;5.50;4.15;;;26.80;99.90;;;;;;5030580;28;20390;-85
2023/07/09 08:20:59;;;;;;;4.97;4.47;;;27.00;99.90;;;;;;5016649;28;20458;-86
2023/07/09 08:23:24;;;;;;;5.93;3.92;;;27.10;99.90;;;;;;5034872;28;20391;-86
2023/07/09 08:25:54;;;;;;;5.20;4.00;;;27.00;99.90;;;;;;5017290;28;20749;-86
2023/07/09 08:28:20;;;;;;;4.95;4.00;;;26.90;99.90;;;;;;5023096;28;20930;-85
2023/07/09 08:30:45;;;;;;;4.50;4.10;;;27.00;99.90;;;;;;5016959;28;20391;-83
2023/07/09 08:33:11;;;;;;;4.60;3.90;;;27.10;99.90;;;;;;5017890;28;20403;-85
2023/07/09 08:35:36;;;;;;;4.57;4.10;;;27.10;99.90;;;;;;5021308;28;20398;-84
2023/07/09 08:38:02;;;;;;;4.67;3.90;;;27.20;99.90;;;;;;5018782;28;20406;-85
2023/07/09 08:40:28;;;;;;;4.73;4.33;;;27.20;99.90;;;;;;5031088;28;20812;-85
2023/07/09 08:43:05;;;;;;;5.00;4.50;;;26.70;99.90;;;;;;5023211;28;20391;-85
2023/07/09 08:45:56;;;;;;;4.25;3.85;;;27.00;99.90;;;;;;5023006;28;20374;-86
2023/07/09 08:48:33;;;;;;;4.65;4.03;;;27.20;99.90;;;;;;5016699;28;20407;-84
2023/07/09 08:51:47;;;;;;;7.23;4.80;;;27.40;99.90;;;;;;5026240;28;20383;-83
2023/07/09 08:54:36;;;;;;;4.53;3.65;;;27.50;99.90;;;;;;5048096;28;20724;-83
2023/07/09 08:57:19;;;;;;;4.93;3.70;;;27.70;99.90;;;;;;5040273;28;20886;-84
2023/07/09 08:59:46;;;;;;;6.80;4.47;;;27.70;99.90;;;;;;5042158;28;20955;-83
2023/07/09 09:02:43;;;;;;;5.30;4.00;;;27.60;99.90;;;;;;5060061;28;20389;-82
2023/07/09 09:05:14;;;;;;;5.88;4.40;;;27.70;99.90;;;;;;5015003;28;20421;-84
2023/07/09 09:07:44;;;;;;;5.88;3.95;;;27.60;99.90;;;;;;5046600;28;20378;-83
2023/07/09 09:10:23;;;;;;;4.25;3.83;;;27.90;99.90;;;;;;5063446;28;20393;-83
2023/07/09 09:13:11;;;;;;;5.05;4.20;;;27.90;99.90;;;;;;5039558;28;20405;-83
2023/07/09 09:15:40;;;;;;;5.28;4.30;;;28.10;99.90;;;;;;5057071;28;20970;-84
2023/07/09 09:18:28;;;;;;;5.72;4.32;;;28.10;99.90;;;;;;5059345;28;20409;-84
2023/07/09 09:21:23;;;;;;;6.35;4.20;;;28.20;99.90;;;;;;5040079;28;20461;-83
2023/07/09 09:23:54;;;;;;;4.80;4.10;;;28.30;99.90;;;;;;5039727;28;20379;-84
2023/07/09 09:26:34;;;;;;;5.30;3.90;;;28.60;99.90;;;;;;5019293;28;20398;-84
2023/07/09 09:29:00;;;;;;;4.10;3.60;;;28.90;99.90;;;;;;5048443;28;20399;-84
2023/07/09 09:31:29;;;;;;;4.80;3.80;;;28.80;99.90;;;;;;5038441;28;20408;-84
2023/07/09 09:33:55;;;;;;;7.80;4.50;;;28.90;99.90;;;;;;5039485;28;20401;-83
2023/07/09 09:36:26;;;;;;;4.90;4.40;;;29.10;99.90;;;;;;5042311;28;20405;-84
2023/07/09 09:38:52;;;;;;;5.03;4.32;;;29.40;99.90;;;;;;5036959;28;20425;-84
2023/07/09 09:41:33;;;;;;;4.00;3.70;;;29.40;99.90;;;;;;5036474;28;20407;-83
2023/07/09 09:43:59;;;;;;;4.20;3.80;;;29.30;99.90;;;;;;5022655;28;20395;-84
2023/07/09 09:46:29;;;;;;;4.95;3.70;;;29.60;99.90;;;;;;5037409;28;21687;-83
2023/07/09 09:48:59;;;;;;;4.47;4.00;;;29.60;99.90;;;;;;5034047;28;20409;-84
2023/07/09 09:51:24;;;;;;;6.40;4.07;;;29.50;99.90;;;;;;5027485;28;20402;-84
2023/07/09 09:53:58;;;;;;;4.30;3.90;;;29.60;99.90;;;;;;5044144;28;20411;-84
2023/07/09 09:56:36;;;;;;;5.22;3.90;;;29.70;99.90;;;;;;5048464;28;20428;-84
2023/07/09 09:59:03;;;;;;;4.60;4.13;;;29.70;99.90;;;;;;5026851;28;20429;-84
2023/07/09 10:01:32;;;;;;;5.28;4.13;;;29.60;99.90;;;;;;5038228;28;20498;-85
2023/07/09 10:03:59;;;;;;;6.10;4.47;;;29.70;99.90;;;;;;5021276;28;20877;-85
2023/07/09 10:06:37;;;;;;;5.10;4.00;;;29.80;99.90;;;;;;5045824;28;20408;-85
2023/07/09 10:09:29;;;;;;;4.37;3.60;;;29.90;99.90;;;;;;5033675;28;20436;-85
2023/07/09 10:12:22;;;;;;;4.78;3.50;;;29.90;99.90;;;;;;5029582;28;20419;-84
2023/07/09 10:15:01;;;;;;;4.20;3.80;;;30.00;99.90;;;;;;5039655;28;20406;-85
2023/07/09 10:17:54;;;;;;;4.60;4.10;;;30.10;99.90;;;;;;5020939;28;20424;-83
2023/07/09 10:20:56;;;;;;;5.25;4.10;;;30.30;99.90;;;;;;5025416;28;20456;-84
2023/07/09 10:23:28;;;;;;;5.70;4.40;;;30.30;99.90;;;;;;5038707;28;20402;-84
2023/07/09 10:26:21;;;;;;;4.30;3.90;;;30.40;99.90;;;;;;5026084;28;20433;-84
2023/07/09 10:28:59;;;;;;;4.70;3.60;;;30.50;99.90;;;;;;5037726;28;20385;-84
2023/07/09 10:31:34;;;;;;;5.90;3.75;;;30.50;99.90;;;;;;5023730;28;20457;-85
2023/07/09 10:34:17;;;;;;;4.50;3.70;;;30.70;99.90;;;;;;5023517;28;20483;-85
2023/07/09 10:37:04;;;;;;;4.38;3.97;;;30.90;99.90;;;;;;5047308;28;20429;-84
2023/07/09 10:39:37;;;;;;;4.80;3.90;;;30.90;99.90;;;;;;5063417;28;20403;-85
2023/07/09 10:42:03;;;;;;;6.30;4.10;;;31.00;99.90;;;;;;5058644;28;20397;-85
2023/07/09 10:44:36;;;;;;;4.60;3.80;;;31.10;99.90;;;;;;5039496;28;20385;-85
2023/07/09 10:47:06;;;;;;;4.97;3.53;;;31.20;99.90;;;;;;5029900;28;20397;-85
2023/07/09 10:49:37;;;;;;;5.70;4.10;;;31.20;99.90;;;;;;5045384;28;20409;-84
2023/07/09 10:52:27;;;;;;;4.30;3.90;;;31.30;99.90;;;;;;5023947;28;20471;-85
2023/07/09 10:55:26;;;;;;;4.25;3.80;;;31.40;99.90;;;;;;5034005;28;20499;-84
2023/07/09 10:57:59;;;;;;;4.20;3.58;;;31.40;99.90;;;;;;5016606;28;20403;-84
2023/07/09 11:00:35;;;;;;;6.00;4.20;;;31.40;99.90;;;;;;5033577;28;20878;-85
2023/07/09 11:03:09;;;;;;;4.32;3.92;;;31.40;99.90;;;;;;5031226;28;20403;-84
2023/07/09 11:05:36;;;;;;;5.00;4.10;;;31.60;99.90;;;;;;5038604;28;20614;-85
2023/07/09 11:08:12;;;;;;;4.00;3.60;;;31.90;99.90;;;;;;5037956;28;20478;-84
2023/07/09 11:10:44;;;;;;;4.70;3.53;;;31.60;99.90;;;;;;5049376;28;20401;-85
2023/07/09 11:13:23;;;;;;;3.92;3.53;;;31.80;99.90;;;;;;5053762;28;20432;-83
2023/07/09 11:15:53;;;;;;;3.88;3.53;;;32.00;99.90;;;;;;5031039;28;20420;-85
2023/07/09 11:18:26;;;;;;;5.07;3.50;;;32.10;99.90;;;;;;5035085;28;20409;-84
2023/07/09 11:21:03;;;;;;;4.80;3.72;;;32.20;99.90;;;;;;5041222;28;20512;-84
2023/07/09 11:23:51;;;;;;;3.78;3.40;;;32.50;99.90;;;;;;5028609;28;20397;-85
2023/07/09 11:26:25;;;;;;;3.90;3.60;;;32.50;99.90;;;;;;5037952;28;20885;-84
2023/07/09 11:28:54;;;;;;;4.77;4.03;;;32.60;99.90;;;;;;5031192;28;20424;-84
2023/07/09 11:31:40;;;;;;;4.15;3.85;;;32.60;99.90;;;;;;5058568;28;20445;-85
2023/07/09 11:34:10;;;;;;;5.22;4.18;;;33.00;99.90;;;;;;5034690;28;20987;-85
2023/07/09 11:36:55;;;;;;;5.10;3.80;;;32.90;99.90;;;;;;5027408;28;20421;-84
2023/07/09 11:39:36;;;;;;;4.53;4.13;;;33.00;99.90;;;;;;5016926;28;20819;-85
2023/07/09 11:42:02;;;;;;;4.25;3.90;;;33.50;99.90;;;;;;5020848;28;20401;-85
2023/07/09 11:44:31;;;;;;;4.20;3.40;;;33.40;99.90;;;;;;5038343;28;20447;-83
2023/07/09 11:47:21;;;;;;;4.57;3.60;;;34.00;99.90;;;;;;5017406;28;20398;-84
2023/07/09 11:49:52;;;;;;;4.00;3.60;;;34.70;99.90;;;;;;5029832;28;20391;-84
2023/07/09 11:52:40;;;;;;;4.93;3.85;;;35.20;99.90;;;;;;5018014;28;20448;-83
2023/07/09 11:55:21;;;;;;;3.70;3.10;;;35.20;99.90;;;;;;5043874;28;20484;-84
2023/07/09 11:57:54;;;;;;;4.20;3.80;;;34.50;99.90;;;;;;5025063;28;20406;-84
2023/07/09 12:00:20;;;;;;;5.10;3.97;;;35.10;99.90;;;;;;5016512;28;20461;-84
2023/07/09 12:02:46;;;;;;;4.78;3.75;;;35.50;99.90;;;;;;5036622;28;20408;-84
2023/07/09 12:05:13;;;;;;;3.88;3.58;;;35.90;99.90;;;;;;5025114;28;20409;-85
2023/07/09 12:07:39;;;;;;;4.13;3.83;;;35.50;99.90;;;;;;5016345;28;20403;-85
2023/07/09 12:10:21;;;;;;;4.10;3.42;;;35.50;99.90;;;;;;5032026;28;20383;-84
2023/07/09 12:12:46;;;;;;;5.00;3.80;;;35.40;99.90;;;;;;5013182;28;20383;-85
2023/07/09 12:15:19;;;;;;;3.70;3.40;;;34.90;99.90;;;;;;5026239;28;20512;-83
2023/07/09 12:17:54;;;;;;;5.45;4.10;;;35.00;99.90;;;;;;5027596;28;20407;-83
2023/07/09 12:20:20;;;;;;;4.85;3.70;;;35.20;99.90;;;;;;5032285;28;20413;-84
2023/07/09 12:22:46;;;;;;;7.30;3.78;;;35.00;99.90;;;;;;5025565;28;20415;-83
2023/07/09 12:25:22;;;;;;;4.80;3.80;;;34.80;99.90;;;;;;5029060;28;20383;-84
2023/07/09 12:27:48;;;;;;;4.00;3.53;;;35.00;99.90;;;;;;5051553;28;20880;-84
2023/07/09 12:30:14;;;;;;;5.00;3.80;;;34.60;99.90;;;;;;5063017;28;20388;-84
2023/07/09 12:32:46;;;;;;;6.10;4.00;;;34.40;99.90;;;;;;5051974;28;20403;-83
2023/07/09 12:35:14;;;;;;;4.20;3.75;;;34.50;99.90;;;;;;5024405;28;20462;-85
2023/07/09 12:37:44;;;;;;;5.00;4.22;;;34.60;99.90;;;;;;5016424;28;20387;-83
2023/07/09 12:40:16;;;;;;;5.25;4.00;;;34.60;99.90;;;;;;5015929;28;20415;-84
2023/07/09 12:42:42;;;;;;;4.50;3.80;;;34.90;99.90;;;;;;5025373;28;20412;-85
2023/07/09 12:45:20;;;;;;;4.07;3.53;;;35.10;99.90;;;;;;5040854;28;20400;-84
2023/07/09 12:47:47;;;;;;;5.30;4.00;;;35.70;99.90;;;;;;5042170;28;20394;-85
2023/07/09 12:50:18;;;;;;;4.63;4.20;;;35.30;99.90;;;;;;5018025;28;20395;-84
2023/07/09 12:52:48;;;;;;;4.90;4.30;;;35.30;99.90;;;;;;5032348;28;20468;-85
2023/07/09 12:55:23;;;;;;;4.85;3.88;;;35.20;99.90;;;;;;5059304;28;20417;-84
2023/07/09 12:57:48;;;;;;;5.60;3.80;;;35.00;99.90;;;;;;5017355;28;20470;-83
2023/07/09 13:00:17;;;;;;;4.50;4.10;;;35.60;99.90;;;;;;5021566;28;20844;-84